sensor_id;sensor_type;location;lat;lon;timestamp;pressure;altitude;pressure_sealevel;temperature;humidity
6694;BME280;3384;42.628;23.380;2022-10-16T00:00:42;94823.28;;;11.11;100.00
6694;BME280;3384;42.628;23.380;2022-10-16T00:03:09;94817.31;;;10.77;100.00
6694;BME280;3384;42.628;23.380;2022-10-16T00:05:41;94826.06;;;10.82;100.00
6694;BME280;3384;42.628;23.380;2022-10-16T00:08:10;94828.59;;;10.74;100.00
6694;BME280;3384;42.628;23.380;2022-10-16T00:10:37;94822.19;;;10.93;100.00
6694;BME280;3384;42.628;23.380;2022-10-16T00:13:04;94825.00;;;11.02;100.00
6694;BME280;3384;42.628;23.380;2022-10-16T00:15:34;94833.44;;;11.14;100.00
6694;BME280;3384;42.628;23.380;2022-10-16T00:18:02;94834.59;;;11.08;100.00
6694;BME280;3384;42.628;23.380;2022-10-16T00:20:29;94831.69;;;11.04;100.00
6694;BME280;3384;42.628;23.380;2022-10-16T00:22:58;94832.84;;;10.98;100.00
6694;BME280;3384;42.628;23.380;2022-10-16T00:25:25;94838.72;;;11.00;100.00
6694;BME280;3384;42.628;23.380;2022-10-16T00:27:52;94845.44;;;10.98;100.00
6694;BME280;3384;42.628;23.380;2022-10-16T00:30:19;94835.66;;;10.88;100.00
6694;BME280;3384;42.628;23.380;2022-10-16T00:32:47;94845.88;;;11.05;100.00
6694;BME280;3384;42.628;23.380;2022-10-16T00:35:14;94855.84;;;11.04;100.00
6694;BME280;3384;42.628;23.380;2022-10-16T00:37:41;94855.25;;;10.89;100.00
6694;BME280;3384;42.628;23.380;2022-10-16T00:40:08;94857.84;;;10.94;100.00
6694;BME280;3384;42.628;23.380;2022-10-16T00:42:35;94859.13;;;10.78;100.00
6694;BME280;3384;42.628;23.380;2022-10-16T00:45:03;94859.44;;;10.95;100.00
6694;BME280;3384;42.628;23.380;2022-10-16T00:47:34;94846.63;;;10.92;100.00
6694;BME280;3384;42.628;23.380;2022-10-16T00:50:07;94852.44;;;10.99;100.00
6694;BME280;3384;42.628;23.380;2022-10-16T00:52:34;94845.69;;;11.01;100.00
6694;BME280;3384;42.628;23.380;2022-10-16T00:55:03;94865.69;;;10.90;100.00
6694;BME280;3384;42.628;23.380;2022-10-16T00:57:31;94853.00;;;10.96;100.00
6694;BME280;3384;42.628;23.380;2022-10-16T00:59:58;94851.00;;;10.83;100.00
6694;BME280;3384;42.628;23.380;2022-10-16T01:02:25;94860.19;;;10.77;100.00
6694;BME280;3384;42.628;23.380;2022-10-16T01:04:52;94857.75;;;10.80;100.00
6694;BME280;3384;42.628;23.380;2022-10-16T01:07:30;94863.63;;;10.59;100.00
6694;BME280;3384;42.628;23.380;2022-10-16T01:10:07;94865.47;;;10.40;100.00
6694;BME280;3384;42.628;23.380;2022-10-16T01:12:41;94873.38;;;10.50;100.00
6694;BME280;3384;42.628;23.380;2022-10-16T01:15:15;94865.22;;;10.36;100.00
6694;BME280;3384;42.628;23.380;2022-10-16T01:17:48;94871.13;;;10.33;100.00
6694;BME280;3384;42.628;23.380;2022-10-16T01:20:23;94862.63;;;10.26;100.00
6694;BME280;3384;42.628;23.380;2022-10-16T01:23:27;94869.56;;;10.32;100.00
6694;BME280;3384;42.628;23.380;2022-10-16T01:26:13;94863.44;;;10.27;100.00
6694;BME280;3384;42.628;23.380;2022-10-16T01:28:55;94857.66;;;10.15;100.00
6694;BME280;3384;42.628;23.380;2022-10-16T01:31:24;94860.06;;;9.83;100.00
6694;BME280;3384;42.628;23.380;2022-10-16T01:34:09;94849.03;;;9.61;100.00
6694;BME280;3384;42.628;23.380;2022-10-16T01:36:43;94853.34;;;9.85;100.00
6694;BME280;3384;42.628;23.380;2022-10-16T01:39:13;94846.41;;;9.51;100.00
6694;BME280;3384;42.628;23.380;2022-10-16T01:41:43;94846.56;;;9.64;100.00
6694;BME280;3384;42.628;23.380;2022-10-16T01:44:17;94846.38;;;9.56;100.00
6694;BME280;3384;42.628;23.380;2022-10-16T01:46:47;94844.69;;;9.65;100.00
6694;BME280;3384;42.628;23.380;2022-10-16T01:49:16;94850.13;;;9.55;100.00
6694;BME280;3384;42.628;23.380;2022-10-16T01:51:46;94861.03;;;9.63;100.00
6694;BME280;3384;42.628;23.380;2022-10-16T01:54:16;94862.88;;;9.34;100.00
6694;BME280;3384;42.628;23.380;2022-10-16T01:56:45;94862.44;;;9.17;100.00
6694;BME280;3384;42.628;23.380;2022-10-16T01:59:16;94864.19;;;9.32;100.00
6694;BME280;3384;42.628;23.380;2022-10-16T02:01:47;94856.63;;;9.44;100.00
6694;BME280;3384;42.628;23.380;2022-10-16T02:04:18;94867.00;;;9.50;100.00
6694;BME280;3384;42.628;23.380;2022-10-16T02:06:45;94859.72;;;9.61;100.00
6694;BME280;3384;42.628;23.380;2022-10-16T02:09:12;94877.28;;;9.72;100.00
6694;BME280;3384;42.628;23.380;2022-10-16T02:11:41;94872.91;;;9.86;100.00
6694;BME280;3384;42.628;23.380;2022-10-16T02:14:08;94866.03;;;10.08;100.00
6694;BME280;3384;42.628;23.380;2022-10-16T02:16:38;94869.34;;;9.62;100.00
6694;BME280;3384;42.628;23.380;2022-10-16T02:19:06;94875.91;;;9.41;100.00
6694;BME280;3384;42.628;23.380;2022-10-16T02:21:39;94884.56;;;9.66;100.00
6694;BME280;3384;42.628;23.380;2022-10-16T02:24:13;94871.41;;;9.70;100.00
6694;BME280;3384;42.628;23.380;2022-10-16T02:26:49;94869.50;;;9.75;100.00
6694;BME280;3384;42.628;23.380;2022-10-16T02:29:22;94880.13;;;9.52;100.00
6694;BME280;3384;42.628;23.380;2022-10-16T02:31:55;94880.31;;;9.65;100.00
6694;BME280;3384;42.628;23.380;2022-10-16T02:34:24;94880.66;;;9.05;100.00
6694;BME280;3384;42.628;23.380;2022-10-16T02:36:52;94879.78;;;9.20;100.00
6694;BME280;3384;42.628;23.380;2022-10-16T02:39:20;94882.41;;;9.30;100.00
6694;BME280;3384;42.628;23.380;2022-10-16T02:41:47;94874.72;;;9.13;100.00
6694;BME280;3384;42.628;23.380;2022-10-16T02:44:14;94879.78;;;9.20;100.00
6694;BME280;3384;42.628;23.380;2022-10-16T02:46:41;94886.69;;;9.31;100.00
6694;BME280;3384;42.628;23.380;2022-10-16T02:49:09;94878.53;;;9.07;100.00
6694;BME280;3384;42.628;23.380;2022-10-16T02:51:36;94878.25;;;9.09;100.00
6694;BME280;3384;42.628;23.380;2022-10-16T02:54:03;94879.06;;;9.04;100.00
6694;BME280;3384;42.628;23.380;2022-10-16T02:56:30;94890.06;;;8.98;100.00
6694;BME280;3384;42.628;23.380;2022-10-16T02:58:57;94886.88;;;8.96;100.00
6694;BME280;3384;42.628;23.380;2022-10-16T03:01:23;94891.84;;;9.12;100.00
6694;BME280;3384;42.628;23.380;2022-10-16T03:03:50;94898.09;;;8.93;100.00
6694;BME280;3384;42.628;23.380;2022-10-16T03:06:18;94906.16;;;8.83;100.00
6694;BME280;3384;42.628;23.380;2022-10-16T03:08:45;94903.78;;;8.71;100.00
6694;BME280;3384;42.628;23.380;2022-10-16T03:11:12;94901.75;;;8.48;100.00
6694;BME280;3384;42.628;23.380;2022-10-16T03:13:39;94909.47;;;8.60;100.00
6694;BME280;3384;42.628;23.380;2022-10-16T03:16:05;94904.00;;;8.90;100.00
6694;BME280;3384;42.628;23.380;2022-10-16T03:18:32;94907.91;;;9.12;100.00
6694;BME280;3384;42.628;23.380;2022-10-16T03:20:59;94920.00;;;9.00;100.00
6694;BME280;3384;42.628;23.380;2022-10-16T03:23:27;94922.16;;;8.93;100.00
6694;BME280;3384;42.628;23.380;2022-10-16T03:25:54;94909.66;;;8.83;100.00
6694;BME280;3384;42.628;23.380;2022-10-16T03:28:21;94920.16;;;8.60;100.00
6694;BME280;3384;42.628;23.380;2022-10-16T03:30:47;94912.84;;;8.80;100.00
6694;BME280;3384;42.628;23.380;2022-10-16T03:33:14;94912.09;;;8.70;100.00
6694;BME280;3384;42.628;23.380;2022-10-16T03:35:41;94916.13;;;8.57;100.00
6694;BME280;3384;42.628;23.380;2022-10-16T03:38:08;94920.72;;;8.47;100.00
6694;BME280;3384;42.628;23.380;2022-10-16T03:40:36;94922.06;;;8.14;100.00
6694;BME280;3384;42.628;23.380;2022-10-16T03:43:03;94916.47;;;8.00;100.00
6694;BME280;3384;42.628;23.380;2022-10-16T03:45:30;94923.91;;;8.38;100.00
6694;BME280;3384;42.628;23.380;2022-10-16T03:47:56;94913.25;;;8.33;100.00
6694;BME280;3384;42.628;23.380;2022-10-16T03:50:23;94908.66;;;8.59;100.00
6694;BME280;3384;42.628;23.380;2022-10-16T03:52:50;94913.16;;;8.69;100.00
6694;BME280;3384;42.628;23.380;2022-10-16T03:55:17;94911.00;;;8.76;100.00
6694;BME280;3384;42.628;23.380;2022-10-16T03:57:45;94912.09;;;8.75;100.00
6694;BME280;3384;42.628;23.380;2022-10-16T04:00:12;94909.09;;;8.86;100.00
6694;BME280;3384;42.628;23.380;2022-10-16T04:02:39;94914.75;;;8.70;100.00
6694;BME280;3384;42.628;23.380;2022-10-16T04:05:07;94908.25;;;8.91;100.00
6694;BME280;3384;42.628;23.380;2022-10-16T04:07:34;94918.41;;;8.99;100.00
6694;BME280;3384;42.628;23.380;2022-10-16T04:10:01;94914.72;;;8.80;100.00
6694;BME280;3384;42.628;23.380;2022-10-16T04:12:28;94915.00;;;8.83;100.00
6694;BME280;3384;42.628;23.380;2022-10-16T04:14:56;94905.19;;;8.48;100.00
6694;BME280;3384;42.628;23.380;2022-10-16T04:17:23;94911.63;;;8.37;100.00
6694;BME280;3384;42.628;23.380;2022-10-16T04:19:50;94900.97;;;8.07;100.00
6694;BME280;3384;42.628;23.380;2022-10-16T04:22:17;94907.41;;;8.26;100.00
6694;BME280;3384;42.628;23.380;2022-10-16T04:24:43;94899.41;;;7.91;100.00
6694;BME280;3384;42.628;23.380;2022-10-16T04:27:10;94911.13;;;7.85;100.00
6694;BME280;3384;42.628;23.380;2022-10-16T04:29:37;94909.53;;;7.99;100.00
6694;BME280;3384;42.628;23.380;2022-10-16T04:32:07;94915.41;;;7.71;100.00
6694;BME280;3384;42.628;23.380;2022-10-16T04:34:34;94911.16;;;7.80;100.00
6694;BME280;3384;42.628;23.380;2022-10-16T04:37:01;94914.59;;;7.71;100.00
6694;BME280;3384;42.628;23.380;2022-10-16T04:39:28;94917.53;;;7.54;100.00
6694;BME280;3384;42.628;23.380;2022-10-16T04:41:55;94924.47;;;7.45;100.00
6694;BME280;3384;42.628;23.380;2022-10-16T04:44:22;94926.06;;;7.51;100.00
6694;BME280;3384;42.628;23.380;2022-10-16T04:46:50;94934.31;;;7.45;100.00
6694;BME280;3384;42.628;23.380;2022-10-16T04:49:18;94929.81;;;7.80;100.00
6694;BME280;3384;42.628;23.380;2022-10-16T04:51:45;94936.78;;;7.76;100.00
6694;BME280;3384;42.628;23.380;2022-10-16T04:54:12;94931.41;;;7.56;100.00
6694;BME280;3384;42.628;23.380;2022-10-16T04:56:38;94941.53;;;7.64;100.00
6694;BME280;3384;42.628;23.380;2022-10-16T04:59:12;94941.56;;;7.69;100.00
6694;BME280;3384;42.628;23.380;2022-10-16T05:01:39;94947.38;;;7.46;100.00
6694;BME280;3384;42.628;23.380;2022-10-16T05:04:06;94949.25;;;7.56;100.00
6694;BME280;3384;42.628;23.380;2022-10-16T05:06:34;94953.56;;;7.72;100.00
6694;BME280;3384;42.628;23.380;2022-10-16T05:09:01;94950.63;;;7.63;100.00
6694;BME280;3384;42.628;23.380;2022-10-16T05:11:28;94950.09;;;7.91;100.00
6694;BME280;3384;42.628;23.380;2022-10-16T05:13:54;94955.44;;;7.86;100.00
6694;BME280;3384;42.628;23.380;2022-10-16T05:16:21;94954.34;;;7.72;100.00
6694;BME280;3384;42.628;23.380;2022-10-16T05:18:48;94954.34;;;7.52;100.00
6694;BME280;3384;42.628;23.380;2022-10-16T05:21:15;94960.25;;;7.69;100.00
6694;BME280;3384;42.628;23.380;2022-10-16T05:23:43;94958.91;;;8.12;100.00
6694;BME280;3384;42.628;23.380;2022-10-16T05:26:10;94963.97;;;7.98;100.00
6694;BME280;3384;42.628;23.380;2022-10-16T05:28:36;94965.56;;;7.99;100.00
6694;BME280;3384;42.628;23.380;2022-10-16T05:31:07;94970.41;;;8.27;100.00
6694;BME280;3384;42.628;23.380;2022-10-16T05:33:34;94955.47;;;8.21;100.00
6694;BME280;3384;42.628;23.380;2022-10-16T05:36:01;94966.66;;;8.18;100.00
6694;BME280;3384;42.628;23.380;2022-10-16T05:38:28;94965.06;;;8.12;100.00
6694;BME280;3384;42.628;23.380;2022-10-16T05:40:56;94957.03;;;8.02;100.00
6694;BME280;3384;42.628;23.380;2022-10-16T05:43:23;94961.31;;;8.54;100.00
6694;BME280;3384;42.628;23.380;2022-10-16T05:45:54;94967.13;;;8.76;100.00
6694;BME280;3384;42.628;23.380;2022-10-16T05:48:21;94972.78;;;8.54;100.00
6694;BME280;3384;42.628;23.380;2022-10-16T05:50:48;94973.31;;;8.11;100.00
6694;BME280;3384;42.628;23.380;2022-10-16T05:53:22;94974.16;;;8.36;100.00
6694;BME280;3384;42.628;23.380;2022-10-16T05:55:52;94984.03;;;8.36;100.00
6694;BME280;3384;42.628;23.380;2022-10-16T05:58:20;94987.22;;;8.58;100.00
6694;BME280;3384;42.628;23.380;2022-10-16T06:00:53;94991.75;;;8.37;100.00
6694;BME280;3384;42.628;23.380;2022-10-16T06:03:20;94984.28;;;8.60;100.00
6694;BME280;3384;42.628;23.380;2022-10-16T06:05:46;95006.94;;;8.67;100.00
6694;BME280;3384;42.628;23.380;2022-10-16T06:08:13;95000.56;;;8.63;100.00
6694;BME280;3384;42.628;23.380;2022-10-16T06:10:40;95001.06;;;8.70;100.00
6694;BME280;3384;42.628;23.380;2022-10-16T06:13:07;95009.84;;;8.91;100.00
6694;BME280;3384;42.628;23.380;2022-10-16T06:15:35;95008.53;;;8.83;100.00
6694;BME280;3384;42.628;23.380;2022-10-16T06:18:04;95008.25;;;8.85;100.00
6694;BME280;3384;42.628;23.380;2022-10-16T06:20:31;95010.91;;;8.90;100.00
6694;BME280;3384;42.628;23.380;2022-10-16T06:22:57;95012.72;;;9.14;100.00
6694;BME280;3384;42.628;23.380;2022-10-16T06:25:24;95013.69;;;9.38;100.00
6694;BME280;3384;42.628;23.380;2022-10-16T06:27:51;95019.88;;;9.29;100.00
6694;BME280;3384;42.628;23.380;2022-10-16T06:30:18;95016.66;;;9.32;100.00
6694;BME280;3384;42.628;23.380;2022-10-16T06:32:46;95018.19;;;9.48;100.00
6694;BME280;3384;42.628;23.380;2022-10-16T06:35:13;95030.72;;;9.62;100.00
6694;BME280;3384;42.628;23.380;2022-10-16T06:37:39;95026.69;;;9.60;100.00
6694;BME280;3384;42.628;23.380;2022-10-16T06:40:07;95028.22;;;9.76;100.00
6694;BME280;3384;42.628;23.380;2022-10-16T06:42:34;95028.28;;;9.66;100.00
6694;BME280;3384;42.628;23.380;2022-10-16T06:45:00;95044.78;;;9.88;100.00
6694;BME280;3384;42.628;23.380;2022-10-16T06:47:27;95035.59;;;9.94;100.00
6694;BME280;3384;42.628;23.380;2022-10-16T06:49:55;95044.28;;;9.76;100.00
6694;BME280;3384;42.628;23.380;2022-10-16T06:52:22;95045.38;;;9.75;100.00
6694;BME280;3384;42.628;23.380;2022-10-16T06:54:49;95048.97;;;9.99;100.00
6694;BME280;3384;42.628;23.380;2022-10-16T06:57:16;95051.13;;;10.02;100.00
6694;BME280;3384;42.628;23.380;2022-10-16T06:59:43;95060.66;;;10.23;100.00
6694;BME280;3384;42.628;23.380;2022-10-16T07:02:10;95056.28;;;10.32;100.00
6694;BME280;3384;42.628;23.380;2022-10-16T07:04:37;95059.50;;;10.34;100.00
6694;BME280;3384;42.628;23.380;2022-10-16T07:07:05;95062.53;;;10.56;100.00
6694;BME280;3384;42.628;23.380;2022-10-16T07:09:32;95064.72;;;10.54;100.00
6694;BME280;3384;42.628;23.380;2022-10-16T07:11:59;95064.78;;;10.77;100.00
6694;BME280;3384;42.628;23.380;2022-10-16T07:14:25;95063.75;;;10.73;100.00
6694;BME280;3384;42.628;23.380;2022-10-16T07:16:53;95061.75;;;10.84;100.00
6694;BME280;3384;42.628;23.380;2022-10-16T07:19:19;95067.28;;;10.97;100.00
6694;BME280;3384;42.628;23.380;2022-10-16T07:21:46;95062.72;;;10.69;100.00
6694;BME280;3384;42.628;23.380;2022-10-16T07:24:15;95058.94;;;10.99;100.00
6694;BME280;3384;42.628;23.380;2022-10-16T07:26:43;95069.56;;;11.09;100.00
6694;BME280;3384;42.628;23.380;2022-10-16T07:29:12;95070.03;;;11.16;100.00
6694;BME280;3384;42.628;23.380;2022-10-16T07:31:40;95069.00;;;11.12;100.00
6694;BME280;3384;42.628;23.380;2022-10-16T07:34:07;95077.66;;;11.33;100.00
6694;BME280;3384;42.628;23.380;2022-10-16T07:36:34;95069.31;;;11.34;100.00
6694;BME280;3384;42.628;23.380;2022-10-16T07:39:01;95072.38;;;11.23;100.00
6694;BME280;3384;42.628;23.380;2022-10-16T07:41:29;95084.44;;;11.49;100.00
6694;BME280;3384;42.628;23.380;2022-10-16T07:43:58;95079.94;;;11.44;100.00
6694;BME280;3384;42.628;23.380;2022-10-16T07:46:26;95078.97;;;11.82;100.00
6694;BME280;3384;42.628;23.380;2022-10-16T07:48:53;95077.03;;;11.64;100.00
6694;BME280;3384;42.628;23.380;2022-10-16T07:51:21;95079.69;;;11.69;100.00
6694;BME280;3384;42.628;23.380;2022-10-16T07:53:48;95081.22;;;11.75;100.00
6694;BME280;3384;42.628;23.380;2022-10-16T07:56:17;95083.22;;;11.65;100.00
6694;BME280;3384;42.628;23.380;2022-10-16T07:58:46;95071.81;;;11.96;100.00
6694;BME280;3384;42.628;23.380;2022-10-16T08:01:15;95082.72;;;11.81;100.00
6694;BME280;3384;42.628;23.380;2022-10-16T08:03:43;95089.41;;;12.07;100.00
6694;BME280;3384;42.628;23.380;2022-10-16T08:06:10;95096.75;;;12.20;100.00
6694;BME280;3384;42.628;23.380;2022-10-16T08:08:37;95086.19;;;12.24;100.00
6694;BME280;3384;42.628;23.380;2022-10-16T08:11:04;95091.88;;;12.22;100.00
6694;BME280;3384;42.628;23.380;2022-10-16T08:13:32;95100.81;;;12.36;100.00
6694;BME280;3384;42.628;23.380;2022-10-16T08:16:00;95073.78;;;12.28;100.00
6694;BME280;3384;42.628;23.380;2022-10-16T08:18:27;95088.47;;;12.54;100.00
6694;BME280;3384;42.628;23.380;2022-10-16T08:20:58;95086.63;;;12.68;100.00
6694;BME280;3384;42.628;23.380;2022-10-16T08:23:25;95086.72;;;12.44;100.00
6694;BME280;3384;42.628;23.380;2022-10-16T08:25:53;95084.03;;;12.44;100.00
6694;BME280;3384;42.628;23.380;2022-10-16T08:28:20;95079.59;;;12.53;100.00
6694;BME280;3384;42.628;23.380;2022-10-16T08:30:47;95082.97;;;12.77;100.00
6694;BME280;3384;42.628;23.380;2022-10-16T08:33:16;95071.25;;;12.87;100.00
6694;BME280;3384;42.628;23.380;2022-10-16T08:35:42;95075.91;;;13.13;100.00
6694;BME280;3384;42.628;23.380;2022-10-16T08:38:09;95084.41;;;13.20;100.00
6694;BME280;3384;42.628;23.380;2022-10-16T08:40:37;95076.16;;;13.17;100.00
6694;BME280;3384;42.628;23.380;2022-10-16T08:43:26;95072.09;;;13.33;100.00
6694;BME280;3384;42.628;23.380;2022-10-16T08:46:11;95081.88;;;13.42;100.00
6694;BME280;3384;42.628;23.380;2022-10-16T08:48:46;95080.22;;;13.14;100.00
6694;BME280;3384;42.628;23.380;2022-10-16T08:51:19;95073.38;;;13.49;100.00
6694;BME280;3384;42.628;23.380;2022-10-16T08:53:50;95084.19;;;13.62;100.00
6694;BME280;3384;42.628;23.380;2022-10-16T08:56:22;95087.66;;;13.90;100.00
6694;BME280;3384;42.628;23.380;2022-10-16T08:58:49;95088.75;;;13.48;100.00
6694;BME280;3384;42.628;23.380;2022-10-16T09:01:18;95088.75;;;13.48;100.00
6694;BME280;3384;42.628;23.380;2022-10-16T09:04:02;95091.38;;;13.80;99.68
6694;BME280;3384;42.628;23.380;2022-10-16T09:06:37;95087.97;;;13.75;98.91
6694;BME280;3384;42.628;23.380;2022-10-16T09:09:35;95096.84;;;13.89;87.41
6694;BME280;3384;42.628;23.380;2022-10-16T09:12:07;95094.44;;;14.01;90.19
6694;BME280;3384;42.628;23.380;2022-10-16T09:14:47;95084.34;;;14.20;86.30
6694;BME280;3384;42.628;23.380;2022-10-16T09:17:27;95078.47;;;14.05;86.15
6694;BME280;3384;42.628;23.380;2022-10-16T09:20:10;95085.13;;;14.34;84.69
6694;BME280;3384;42.628;23.380;2022-10-16T09:22:40;95081.75;;;14.15;90.13
6694;BME280;3384;42.628;23.380;2022-10-16T09:25:12;95080.78;;;13.98;87.81
6694;BME280;3384;42.628;23.380;2022-10-16T09:27:39;95080.78;;;13.98;89.01
6694;BME280;3384;42.628;23.380;2022-10-16T09:30:12;95082.56;;;13.88;87.67
6694;BME280;3384;42.628;23.380;2022-10-16T09:32:39;95079.25;;;14.19;86.96
6694;BME280;3384;42.628;23.380;2022-10-16T09:35:14;95085.09;;;14.48;84.51
6694;BME280;3384;42.628;23.380;2022-10-16T09:37:42;95082.91;;;14.36;83.64
6694;BME280;3384;42.628;23.380;2022-10-16T09:40:12;95078.56;;;14.27;83.17
6694;BME280;3384;42.628;23.380;2022-10-16T09:42:40;95075.13;;;14.48;82.55
6694;BME280;3384;42.628;23.380;2022-10-16T09:45:21;95070.25;;;14.72;81.75
6694;BME280;3384;42.628;23.380;2022-10-16T09:47:49;95068.22;;;14.78;82.02
6694;BME280;3384;42.628;23.380;2022-10-16T09:50:23;95072.75;;;14.91;80.28
6694;BME280;3384;42.628;23.380;2022-10-16T09:53:04;95069.63;;;14.97;80.10
6694;BME280;3384;42.628;23.380;2022-10-16T09:55:31;95062.63;;;14.96;78.25
6694;BME280;3384;42.628;23.380;2022-10-16T09:57:58;95073.25;;;14.71;79.08
6694;BME280;3384;42.628;23.380;2022-10-16T10:00:24;95058.25;;;14.43;83.03
6694;BME280;3384;42.628;23.380;2022-10-16T10:02:52;95066.19;;;14.83;81.15
6694;BME280;3384;42.628;23.380;2022-10-16T10:05:24;95055.38;;;14.83;80.94
6694;BME280;3384;42.628;23.380;2022-10-16T10:07:56;95062.94;;;14.95;78.46
6694;BME280;3384;42.628;23.380;2022-10-16T10:10:24;95062.31;;;14.98;79.08
6694;BME280;3384;42.628;23.380;2022-10-16T10:12:52;95048.44;;;15.13;78.74
6694;BME280;3384;42.628;23.380;2022-10-16T10:15:19;95050.31;;;15.12;78.76
6694;BME280;3384;42.628;23.380;2022-10-16T10:17:48;95047.97;;;14.89;80.29
6694;BME280;3384;42.628;23.380;2022-10-16T10:20:25;95054.19;;;15.20;79.99
6694;BME280;3384;42.628;23.380;2022-10-16T10:22:53;95054.94;;;15.12;80.76
6694;BME280;3384;42.628;23.380;2022-10-16T10:25:38;95048.16;;;14.92;81.85
6694;BME280;3384;42.628;23.380;2022-10-16T10:28:36;95049.41;;;15.17;80.12
6694;BME280;3384;42.628;23.380;2022-10-16T10:31:10;95047.31;;;15.36;77.29
6694;BME280;3384;42.628;23.380;2022-10-16T10:33:44;95047.31;;;15.14;77.68
6694;BME280;3384;42.628;23.380;2022-10-16T10:36:28;95041.47;;;15.42;76.21
6694;BME280;3384;42.628;23.380;2022-10-16T10:38:58;95046.06;;;15.42;75.53
6694;BME280;3384;42.628;23.380;2022-10-16T10:44:55;95037.38;;;15.23;74.86
6694;BME280;3384;42.628;23.380;2022-10-16T10:47:30;95029.72;;;15.47;73.74
6694;BME280;3384;42.628;23.380;2022-10-16T10:50:07;95034.44;;;15.72;72.94
6694;BME280;3384;42.628;23.380;2022-10-16T10:52:50;95028.06;;;15.68;73.05
6694;BME280;3384;42.628;23.380;2022-10-16T10:55:24;95031.56;;;15.77;72.15
6694;BME280;3384;42.628;23.380;2022-10-16T10:58:13;95022.75;;;15.54;68.99
6694;BME280;3384;42.628;23.380;2022-10-16T11:00:51;95010.97;;;15.50;68.76
6694;BME280;3384;42.628;23.380;2022-10-16T11:03:34;95023.66;;;15.80;66.44
6694;BME280;3384;42.628;23.380;2022-10-16T11:06:05;95017.09;;;15.73;65.46
6694;BME280;3384;42.628;23.380;2022-10-16T11:08:37;95005.22;;;15.43;66.93
6694;BME280;3384;42.628;23.380;2022-10-16T11:11:09;95003.88;;;15.63;67.03
6694;BME280;3384;42.628;23.380;2022-10-16T11:13:43;95008.44;;;16.10;64.63
6694;BME280;3384;42.628;23.380;2022-10-16T11:16:16;95005.91;;;16.05;61.70
6694;BME280;3384;42.628;23.380;2022-10-16T11:18:50;95003.66;;;16.07;60.51
6694;BME280;3384;42.628;23.380;2022-10-16T11:21:20;95001.91;;;16.11;60.59
6694;BME280;3384;42.628;23.380;2022-10-16T11:23:54;94995.88;;;16.22;59.39
6694;BME280;3384;42.628;23.380;2022-10-16T11:26:26;95006.06;;;16.25;56.56
6694;BME280;3384;42.628;23.380;2022-10-16T11:28:55;95004.94;;;16.09;56.08
6694;BME280;3384;42.628;23.380;2022-10-16T11:31:28;94994.44;;;16.16;55.30
6694;BME280;3384;42.628;23.380;2022-10-16T11:34:03;94999.22;;;16.28;55.59
6694;BME280;3384;42.628;23.380;2022-10-16T11:36:36;94997.78;;;16.05;54.92
6694;BME280;3384;42.628;23.380;2022-10-16T11:39:16;94996.50;;;16.19;54.60
6694;BME280;3384;42.628;23.380;2022-10-16T11:41:48;94990.66;;;16.17;53.70
6694;BME280;3384;42.628;23.380;2022-10-16T11:44:36;94996.09;;;16.43;54.76
6694;BME280;3384;42.628;23.380;2022-10-16T11:47:19;94992.09;;;16.58;54.90
6694;BME280;3384;42.628;23.380;2022-10-16T11:49:50;94995.28;;;16.60;54.73
6694;BME280;3384;42.628;23.380;2022-10-16T11:52:24;94988.91;;;16.64;54.70
6694;BME280;3384;42.628;23.380;2022-10-16T11:54:57;94998.78;;;16.60;54.36
6694;BME280;3384;42.628;23.380;2022-10-16T11:57:29;94996.06;;;16.60;55.22
6694;BME280;3384;42.628;23.380;2022-10-16T12:00:01;94987.00;;;16.48;55.00
6694;BME280;3384;42.628;23.380;2022-10-16T12:02:44;94993.19;;;16.74;55.44
6694;BME280;3384;42.628;23.380;2022-10-16T12:05:22;94992.72;;;16.72;55.36
6694;BME280;3384;42.628;23.380;2022-10-16T12:07:59;94989.97;;;16.97;54.19
6694;BME280;3384;42.628;23.380;2022-10-16T12:10:30;94990.16;;;16.92;53.88
6694;BME280;3384;42.628;23.380;2022-10-16T12:13:02;94992.59;;;16.60;52.94
6694;BME280;3384;42.628;23.380;2022-10-16T12:15:31;94988.91;;;16.73;54.44
6694;BME280;3384;42.628;23.380;2022-10-16T12:17:59;94988.91;;;16.73;55.66
6694;BME280;3384;42.628;23.380;2022-10-16T12:20:29;94989.22;;;16.88;56.87
6694;BME280;3384;42.628;23.380;2022-10-16T12:23:03;94999.53;;;16.95;54.94
6694;BME280;3384;42.628;23.380;2022-10-16T12:25:33;94994.94;;;16.87;55.42
6694;BME280;3384;42.628;23.380;2022-10-16T12:28:03;94991.41;;;16.95;54.46
6694;BME280;3384;42.628;23.380;2022-10-16T12:30:32;94986.94;;;16.90;54.33
6694;BME280;3384;42.628;23.380;2022-10-16T12:33:01;94991.03;;;17.22;53.28
6694;BME280;3384;42.628;23.380;2022-10-16T12:35:31;94984.69;;;17.09;54.43
6694;BME280;3384;42.628;23.380;2022-10-16T12:38:06;94977.47;;;17.22;53.51
6694;BME280;3384;42.628;23.380;2022-10-16T12:40:38;94995.53;;;17.09;55.43
6694;BME280;3384;42.628;23.380;2022-10-16T12:46:03;94996.31;;;17.10;53.06
6694;BME280;3384;42.628;23.380;2022-10-16T12:48:31;95001.06;;;17.21;53.83
6694;BME280;3384;42.628;23.380;2022-10-16T12:51:09;94992.59;;;17.31;53.22
6694;BME280;3384;42.628;23.380;2022-10-16T12:53:36;94998.47;;;17.33;53.20
6694;BME280;3384;42.628;23.380;2022-10-16T12:56:10;94999.25;;;17.42;52.47
6694;BME280;3384;42.628;23.380;2022-10-16T12:59:04;94993.66;;;17.56;52.79
6694;BME280;3384;42.628;23.380;2022-10-16T13:01:46;95001.09;;;17.59;52.69
6694;BME280;3384;42.628;23.380;2022-10-16T13:04:31;95003.22;;;17.45;52.67
6694;BME280;3384;42.628;23.380;2022-10-16T13:07:16;95005.16;;;17.44;52.14
6694;BME280;3384;42.628;23.380;2022-10-16T13:09:55;95003.38;;;17.48;52.84
6694;BME280;3384;42.628;23.380;2022-10-16T13:12:41;95004.94;;;17.58;53.36
6694;BME280;3384;42.628;23.380;2022-10-16T13:15:28;95008.16;;;17.51;53.28
6694;BME280;3384;42.628;23.380;2022-10-16T13:18:05;95003.91;;;17.42;53.71
6694;BME280;3384;42.628;23.380;2022-10-16T13:20:49;95001.63;;;17.52;54.39
6694;BME280;3384;42.628;23.380;2022-10-16T13:23:22;95001.91;;;17.59;54.61
6694;BME280;3384;42.628;23.380;2022-10-16T13:26:04;95003.59;;;17.26;55.18
6694;BME280;3384;42.628;23.380;2022-10-16T13:28:38;95005.59;;;17.55;54.70
6694;BME280;3384;42.628;23.380;2022-10-16T13:31:05;95005.59;;;17.55;55.14